createdAt,value
2018-11-03T00:01:26.164Z,101724.47
2018-11-03T00:03:55.222Z,101721.96
2018-11-03T00:06:24.414Z,101729.18
2018-11-03T00:08:53.329Z,101727.84
2018-11-03T00:11:22.115Z,101728.26
2018-11-03T00:13:50.461Z,101724.44
2018-11-03T00:16:20.720Z,101721.82
2018-11-03T00:18:49.346Z,101726.95
2018-11-03T00:21:17.761Z,101728.61
2018-11-03T00:23:46.159Z,101729.85
2018-11-03T00:26:14.575Z,101727.27
2018-11-03T00:28:43.822Z,101724.80
2018-11-03T00:31:12.224Z,101729.14
2018-11-03T00:33:40.586Z,101732.50
2018-11-03T00:36:09.353Z,101731.16
2018-11-03T00:38:38.550Z,101728.69
2018-11-03T00:41:06.934Z,101729.85
2018-11-03T00:43:35.329Z,101731.09
2018-11-03T00:46:04.313Z,101733.28
2018-11-03T00:48:32.669Z,101729.05
2018-11-03T00:51:01.043Z,101734.98
2018-11-03T00:53:29.376Z,101732.02
2018-11-03T00:55:57.802Z,101730.24
2018-11-03T00:58:26.179Z,101732.05
2018-11-03T01:00:54.650Z,101734.52
2018-11-03T01:03:23.067Z,101735.12
2018-11-03T01:05:51.522Z,101733.34
2018-11-03T01:08:19.923Z,101735.81
2018-11-03T01:10:48.354Z,101739.05
2018-11-03T01:13:16.748Z,101736.89
2018-11-03T01:15:45.813Z,101734.34
2018-11-03T01:18:14.150Z,101733.27
2018-11-03T01:20:42.618Z,101726.01
2018-11-03T01:23:11.071Z,101727.17
2018-11-03T01:25:39.482Z,101731.98
2018-11-03T01:28:07.861Z,101741.33
2018-11-03T01:30:36.242Z,101743.06
2018-11-03T01:33:04.748Z,101747.27
2018-11-03T01:35:33.152Z,101737.12
2018-11-03T01:38:01.633Z,101729.06
2018-11-03T01:40:30.059Z,101735.42
2018-11-03T01:42:58.642Z,101732.38
2018-11-03T01:45:27.873Z,101737.36
2018-11-03T01:47:56.259Z,101738.74
2018-11-03T01:50:25.030Z,101738.63
2018-11-03T01:52:53.485Z,101743.34
2018-11-03T01:55:21.932Z,101745.92
2018-11-03T01:57:50.345Z,101742.45
2018-11-03T02:00:18.871Z,101739.47
2018-11-03T02:02:47.544Z,101740.32
2018-11-03T02:05:15.990Z,101746.14
2018-11-03T02:07:44.396Z,101751.92
2018-11-03T02:10:13.027Z,101754.98
2018-11-03T02:12:41.794Z,101751.30
2018-11-03T02:15:10.526Z,101753.20
2018-11-03T02:17:39.117Z,101762.91
2018-11-03T02:20:09.264Z,101758.55
2018-11-03T02:22:38.168Z,101765.80
2018-11-03T02:25:06.710Z,101760.58
2018-11-03T02:27:35.087Z,101762.47
2018-11-03T02:30:03.591Z,101757.81
2018-11-03T02:32:32.155Z,101760.92
2018-11-03T02:35:00.594Z,101764.45
2018-11-03T02:37:28.919Z,101768.78
2018-11-03T02:39:59.287Z,101768.78
2018-11-03T02:42:28.422Z,101769.34
2018-11-03T02:44:57.073Z,101770.70
2018-11-03T02:47:25.488Z,101772.87
2018-11-03T02:49:53.871Z,101769.91
2018-11-03T02:52:22.298Z,101767.40
2018-11-03T02:54:50.691Z,101769.89
2018-11-03T02:57:19.088Z,101772.92
2018-11-03T02:59:47.688Z,101778.05
2018-11-03T03:02:16.144Z,101782.33
2018-11-03T03:04:44.971Z,101783.73
2018-11-03T03:07:13.378Z,101776.48
2018-11-03T03:09:42.604Z,101778.69
2018-11-03T03:12:10.978Z,101783.81
2018-11-03T03:14:39.447Z,101779.96
2018-11-03T03:17:07.791Z,101778.59
2018-11-03T03:19:36.182Z,101773.09
2018-11-03T03:22:05.111Z,101776.95
2018-11-03T03:24:33.727Z,101782.13
2018-11-03T03:27:02.180Z,101779.16
2018-11-03T03:29:30.679Z,101777.80
2018-11-03T03:31:59.069Z,101775.30
2018-11-03T03:34:27.456Z,101774.41
2018-11-03T03:36:55.885Z,101776.95
2018-11-03T03:39:24.460Z,101779.07
2018-11-03T03:41:53.013Z,101777.70
2018-11-03T03:44:21.974Z,101784.96
2018-11-03T03:46:51.214Z,101785.77
2018-11-03T03:49:19.584Z,101794.66
2018-11-03T03:51:48.066Z,101796.98
2018-11-03T03:54:16.672Z,101797.03
2018-11-03T03:56:45.081Z,101797.38
2018-11-03T03:59:14.025Z,101798.97
2018-11-03T04:01:42.473Z,101800.95
2018-11-03T04:04:10.863Z,101802.22
2018-11-03T04:06:40.047Z,101807.17
2018-11-03T04:09:10.075Z,101811.83
2018-11-03T04:11:38.595Z,101818.14
2018-11-03T04:14:07.022Z,101820.67
2018-11-03T04:16:35.434Z,101817.38
2018-11-03T04:19:03.809Z,101822.08
2018-11-03T04:21:32.254Z,101819.59
2018-11-03T04:24:00.680Z,101816.53
2018-11-03T04:26:30.683Z,101817.66
2018-11-03T04:28:59.716Z,101813.26
2018-11-03T04:31:28.631Z,101810.25
2018-11-03T04:33:57.635Z,101814.01
2018-11-03T04:36:26.204Z,101812.21
2018-11-03T04:38:55.168Z,101818.50
2018-11-03T04:41:23.613Z,101810.74
2018-11-03T04:43:52.024Z,101808.44
2018-11-03T04:46:20.800Z,101804.08
2018-11-03T04:48:53.666Z,101808.59
2018-11-03T04:51:22.254Z,101815.52
2018-11-03T04:53:50.980Z,101812.13
2018-11-03T04:56:19.362Z,101815.89
2018-11-03T04:58:47.698Z,101815.71
2018-11-03T05:01:16.134Z,101816.50
2018-11-03T05:03:44.821Z,101817.23
2018-11-03T05:06:13.450Z,101818.14
2018-11-03T05:08:41.835Z,101815.97
2018-11-03T05:11:10.201Z,101814.53
2018-11-03T05:13:38.803Z,101818.61
2018-11-03T05:16:07.241Z,101820.30
2018-11-03T05:18:35.637Z,101825.33
2018-11-03T05:21:04.427Z,101824.41
2018-11-03T05:23:32.809Z,101824.91
2018-11-03T05:26:01.488Z,101815.23
2018-11-03T05:28:29.859Z,101823.94
2018-11-03T05:30:58.928Z,101823.94
2018-11-03T05:33:27.721Z,101830.18
2018-11-03T05:35:56.207Z,101826.98
2018-11-03T05:38:24.679Z,101828.05
2018-11-03T05:40:53.102Z,101829.39
2018-11-03T05:43:21.483Z,101828.12
2018-11-03T05:45:49.937Z,101826.78
2018-11-03T05:48:18.923Z,101832.88
2018-11-03T05:50:47.382Z,101828.97
2018-11-03T05:53:15.807Z,101833.63
2018-11-03T05:55:44.733Z,101835.94
2018-11-03T05:58:13.166Z,101836.77
2018-11-03T06:00:41.578Z,101839.52
2018-11-03T06:03:09.987Z,101838.17
2018-11-03T06:05:38.382Z,101834.56
2018-11-03T06:08:07.024Z,101839.99
2018-11-03T06:10:35.441Z,101846.33
2018-11-03T06:13:03.952Z,101848.09
2018-11-03T06:15:32.927Z,101852.25
2018-11-03T06:18:01.367Z,101858.53
2018-11-03T06:20:29.849Z,101863.73
2018-11-03T06:22:58.667Z,101871.78
2018-11-03T06:25:27.197Z,101876.19
2018-11-03T06:27:55.823Z,101879.03
2018-11-03T06:30:24.223Z,101880.58
2018-11-03T06:33:01.631Z,101887.12
2018-11-03T06:35:31.158Z,101893.48
2018-11-03T06:38:00.002Z,101896.19
2018-11-03T06:40:37.320Z,101898.93
2018-11-03T06:43:07.187Z,101901.05
2018-11-03T06:45:35.679Z,101909.86
2018-11-03T06:48:04.100Z,101914.42
2018-11-03T06:50:32.423Z,101905.70
2018-11-03T06:53:15.235Z,101913.04
2018-11-03T06:55:44.588Z,101911.95
2018-11-03T06:58:13.057Z,101909.06
2018-11-03T07:00:42.441Z,101914.22
2018-11-03T07:03:13.041Z,101911.42
2018-11-03T07:05:41.531Z,101913.58
2018-11-03T07:08:16.160Z,101909.80
2018-11-03T07:10:50.407Z,101910.00
2018-11-03T07:13:19.046Z,101908.66
2018-11-03T07:15:47.391Z,101905.27
2018-11-03T07:18:16.062Z,101901.75
2018-11-03T07:20:44.469Z,101903.44
2018-11-03T07:23:13.580Z,101905.70
2018-11-03T07:25:45.172Z,101910.21
2018-11-03T07:28:14.062Z,101918.08
2018-11-03T07:30:42.553Z,101916.39
2018-11-03T07:33:12.796Z,101915.97
2018-11-03T07:35:43.883Z,101922.48
2018-11-03T07:38:13.532Z,101924.68
2018-11-03T07:40:42.052Z,101928.09
2018-11-03T07:43:10.968Z,101926.30
2018-11-03T07:45:39.576Z,101922.09
2018-11-03T07:48:08.079Z,101925.78
2018-11-03T07:50:36.907Z,101920.75
2018-11-03T07:53:05.884Z,101922.72
2018-11-03T07:55:34.398Z,101927.50
2018-11-03T07:58:02.833Z,101929.81
2018-11-03T08:00:31.315Z,101923.12
2018-11-03T08:02:59.629Z,101926.53
2018-11-03T08:05:28.054Z,101928.20
2018-11-03T08:07:56.494Z,101933.99
2018-11-03T08:10:24.899Z,101934.20
2018-11-03T08:12:53.306Z,101946.21
2018-11-03T08:15:21.697Z,101938.33
2018-11-03T08:17:51.079Z,101942.50
2018-11-03T08:20:19.873Z,101956.17
2018-11-03T08:22:48.327Z,101950.70
2018-11-03T08:25:17.006Z,101943.86
2018-11-03T08:27:46.236Z,101940.77
2018-11-03T08:30:15.063Z,101944.73
2018-11-03T08:32:43.865Z,101936.77
2018-11-03T08:35:13.377Z,101937.00
2018-11-03T08:37:41.808Z,101934.92
2018-11-03T08:40:12.330Z,101935.08
2018-11-03T08:42:41.428Z,101933.86
2018-11-03T08:45:10.809Z,101934.02
2018-11-03T08:47:39.283Z,101931.92
2018-11-03T08:50:09.578Z,101933.22
2018-11-03T08:52:38.116Z,101931.67
2018-11-03T08:55:08.590Z,101917.81
2018-11-03T08:57:37.091Z,101925.63
2018-11-03T09:00:09.911Z,101925.83
2018-11-03T09:02:38.270Z,101929.88
2018-11-03T09:05:06.943Z,101927.11
2018-11-03T09:07:35.843Z,101919.61
2018-11-03T09:10:05.320Z,101922.74
2018-11-03T09:12:34.433Z,101921.16
2018-11-03T09:15:02.830Z,101923.61
2018-11-03T09:17:31.254Z,101923.77
2018-11-03T09:19:59.771Z,101923.95
2018-11-03T09:22:28.254Z,101928.36
2018-11-03T09:24:56.633Z,101924.53
2018-11-03T09:27:25.490Z,101922.38
2018-11-03T09:29:55.166Z,101927.55
2018-11-03T09:32:25.046Z,101932.66
2018-11-03T09:34:54.565Z,101931.19
2018-11-03T09:37:25.010Z,101934.75
2018-11-03T09:39:55.521Z,101940.32
2018-11-03T09:42:25.022Z,101933.09
2018-11-03T09:44:54.450Z,101933.05
2018-11-03T09:47:24.611Z,101936.10
2018-11-03T09:49:54.980Z,101927.48
2018-11-03T09:52:25.144Z,101933.39
2018-11-03T09:54:54.926Z,101922.73
2018-11-03T09:57:24.775Z,101915.63
2018-11-03T09:59:54.767Z,101921.89
2018-11-03T10:02:24.049Z,101913.41
2018-11-03T10:04:58.638Z,101914.75
2018-11-03T10:07:27.363Z,101913.97
2018-11-03T10:09:55.931Z,101907.08
2018-11-03T10:12:24.423Z,101905.91
2018-11-03T10:14:52.810Z,101900.78
2018-11-03T10:17:21.225Z,101906.88
2018-11-03T10:19:49.633Z,101908.01
2018-11-03T10:22:18.093Z,101900.45
2018-11-03T10:24:46.525Z,101897.91
2018-11-03T10:27:14.887Z,101893.98
2018-11-03T10:29:43.276Z,101884.74
2018-11-03T10:32:11.647Z,101882.99
2018-11-03T10:34:40.009Z,101890.18
2018-11-03T10:37:08.449Z,101890.05
2018-11-03T10:39:36.887Z,101886.80
2018-11-03T10:42:05.338Z,101886.85
2018-11-03T10:44:33.943Z,101885.98
2018-11-03T10:47:02.387Z,101875.77
2018-11-03T10:49:30.866Z,101879.14
2018-11-03T10:51:59.269Z,101879.81
2018-11-03T10:54:27.765Z,101883.71
2018-11-03T10:56:56.325Z,101884.08
2018-11-03T10:59:24.804Z,101884.92
2018-11-03T11:01:58.634Z,101875.50
2018-11-03T11:04:32.192Z,101878.84
2018-11-03T11:08:06.168Z,101878.08
2018-11-03T11:10:40.986Z,101876.47
2018-11-03T11:13:11.802Z,101878.08
2018-11-03T11:15:40.803Z,101872.27
2018-11-03T11:18:09.285Z,101865.08
2018-11-03T11:20:37.711Z,101866.40
2018-11-03T11:23:06.238Z,101860.83
2018-11-03T11:25:34.604Z,101859.48
2018-11-03T11:28:03.075Z,101851.38
2018-11-03T11:30:37.633Z,101843.72
2018-11-03T11:33:08.139Z,101842.84
2018-11-03T11:35:37.509Z,101842.52
2018-11-03T11:38:07.349Z,101841.66
2018-11-03T11:40:36.026Z,101840.86
2018-11-03T11:43:04.498Z,101843.03
2018-11-03T11:45:33.005Z,101830.63
2018-11-03T11:48:01.455Z,101831.80
2018-11-03T11:50:29.856Z,101822.12
2018-11-03T11:52:58.268Z,101830.13
2018-11-03T11:55:26.697Z,101825.45
2018-11-03T11:57:55.067Z,101817.40
2018-11-03T12:00:23.502Z,101814.38
2018-11-03T12:02:51.911Z,101809.70
2018-11-03T12:05:20.274Z,101810.11
2018-11-03T12:07:49.142Z,101806.23
2018-11-03T12:10:17.713Z,101805.38
2018-11-03T12:12:46.551Z,101803.24
2018-11-03T12:15:15.067Z,101802.80
2018-11-03T12:17:43.421Z,101800.69
2018-11-03T12:20:12.207Z,101801.11
2018-11-03T12:22:41.101Z,101800.23
2018-11-03T12:25:10.697Z,101804.89
2018-11-03T12:27:39.333Z,101806.22
2018-11-03T12:30:10.029Z,101801.53
2018-11-03T12:32:38.656Z,101800.67
2018-11-03T12:35:07.387Z,101800.71
2018-11-03T12:37:36.371Z,101793.86
2018-11-03T12:40:05.068Z,101795.58
2018-11-03T12:42:33.785Z,101789.16
2018-11-03T12:45:02.342Z,101786.61
2018-11-03T12:47:31.671Z,101789.14
2018-11-03T12:50:01.252Z,101788.28
2018-11-03T12:52:31.224Z,101787.02
2018-11-03T12:54:59.793Z,101780.16
2018-11-03T12:57:28.859Z,101779.73
2018-11-03T12:59:57.361Z,101777.58
2018-11-03T13:02:25.774Z,101772.87
2018-11-03T13:04:54.353Z,101774.12
2018-11-03T13:07:22.708Z,101766.04
2018-11-03T13:09:51.596Z,101768.56
2018-11-03T13:12:20.576Z,101770.28
2018-11-03T13:14:48.880Z,101764.74
2018-11-03T13:17:17.278Z,101761.31
2018-11-03T13:19:45.773Z,101763.03
2018-11-03T13:22:14.212Z,101763.05
2018-11-03T13:24:42.692Z,101760.91
2018-11-03T13:27:11.209Z,101759.59
2018-11-03T13:29:39.757Z,101762.53
2018-11-03T13:32:08.678Z,101760.84
2018-11-03T13:34:37.535Z,101762.98
2018-11-03T13:37:06.322Z,101760.84
2018-11-03T13:39:34.790Z,101766.41
2018-11-03T13:42:03.442Z,101763.84
2018-11-03T13:44:31.871Z,101758.31
2018-11-03T13:47:00.401Z,101761.27
2018-11-03T13:49:29.128Z,101760.85
2018-11-03T13:51:57.709Z,101757.00
2018-11-03T13:54:26.499Z,101757.02
2018-11-03T13:56:55.020Z,101761.27
2018-11-03T13:59:23.531Z,101765.98
2018-11-03T14:01:52.028Z,101763.86
2018-11-03T14:04:20.488Z,101761.70
2018-11-03T14:06:49.127Z,101762.96
2018-11-03T14:09:17.665Z,101760.00
2018-11-03T14:11:46.113Z,101758.72
2018-11-03T14:14:14.593Z,101759.97
2018-11-03T14:16:43.381Z,101752.70
2018-11-03T14:19:12.048Z,101748.83
2018-11-03T14:21:41.051Z,101752.70
2018-11-03T14:24:09.455Z,101753.13
2018-11-03T14:26:38.092Z,101746.75
2018-11-03T14:29:07.469Z,101750.19
2018-11-03T14:31:36.139Z,101745.03
2018-11-03T14:34:05.044Z,101745.06
2018-11-03T14:36:33.551Z,101740.36
2018-11-03T14:39:02.598Z,101740.77
2018-11-03T14:41:31.246Z,101736.97
2018-11-03T14:44:00.480Z,101732.68
2018-11-03T14:46:29.071Z,101733.06
2018-11-03T14:48:57.610Z,101727.53
2018-11-03T14:51:26.119Z,101727.11
2018-11-03T14:53:54.738Z,101730.97
2018-11-03T14:56:23.308Z,101727.53
2018-11-03T14:58:51.770Z,101722.41
2018-11-03T15:01:20.357Z,101724.11
2018-11-03T15:03:49.206Z,101717.29
2018-11-03T15:06:17.848Z,101712.59
2018-11-03T15:08:46.439Z,101716.02
2018-11-03T15:11:15.174Z,101709.58
2018-11-03T15:13:43.847Z,101706.12
2018-11-03T15:16:12.493Z,101712.06
2018-11-03T15:18:40.983Z,101712.50
2018-11-03T15:21:09.560Z,101709.91
2018-11-03T15:23:38.012Z,101714.14
2018-11-03T15:26:06.478Z,101714.98
2018-11-03T15:28:34.918Z,101708.94
2018-11-03T15:31:03.317Z,101705.94
2018-11-03T15:33:31.668Z,101709.73
2018-11-03T15:36:00.089Z,101702.48
2018-11-03T15:38:28.623Z,101704.56
2018-11-03T15:40:57.047Z,101699.42
2018-11-03T15:43:25.454Z,101698.48
2018-11-03T15:45:53.831Z,101688.24
2018-11-03T15:48:22.279Z,101689.47
2018-11-03T15:50:51.189Z,101693.20
2018-11-03T15:53:20.497Z,101687.95
2018-11-03T15:55:49.042Z,101688.70
2018-11-03T15:58:18.663Z,101689.55
2018-11-03T16:00:47.074Z,101686.61
2018-11-03T16:03:16.798Z,101690.38
2018-11-03T16:05:45.271Z,101692.13
2018-11-03T16:08:14.387Z,101691.66
2018-11-03T16:10:43.254Z,101686.45
2018-11-03T16:13:12.448Z,101687.61
2018-11-03T16:15:44.306Z,101684.98
2018-11-03T16:18:13.347Z,101684.53
2018-11-03T16:20:42.314Z,101684.41
2018-11-03T16:23:11.474Z,101688.65
2018-11-03T16:25:39.891Z,101686.80
2018-11-03T16:28:16.332Z,101688.84
2018-11-03T16:30:45.201Z,101686.30
2018-11-03T16:33:13.544Z,101681.11
2018-11-03T16:35:47.607Z,101688.71
2018-11-03T16:38:16.564Z,101676.75
2018-11-03T16:40:49.549Z,101682.67
2018-11-03T16:43:18.960Z,101683.50
2018-11-03T16:45:48.575Z,101685.20
2018-11-03T16:48:18.524Z,101681.69
2018-11-03T16:50:50.025Z,101688.46
2018-11-03T16:53:21.102Z,101682.48
2018-11-03T16:55:49.664Z,101675.20
2018-11-03T16:58:18.266Z,101678.88
2018-11-03T17:00:47.486Z,101682.83
2018-11-03T17:03:16.445Z,101678.46
2018-11-03T17:05:45.415Z,101677.61
2018-11-03T17:08:16.696Z,101680.95
2018-11-03T17:10:45.525Z,101675.85
2018-11-03T17:13:13.897Z,101678.01
2018-11-03T17:15:42.530Z,101677.13
2018-11-03T17:18:11.313Z,101672.02
2018-11-03T17:20:39.709Z,101669.88
2018-11-03T17:23:08.131Z,101670.72
2018-11-03T17:25:36.763Z,101667.27
2018-11-03T17:28:09.023Z,101674.37
2018-11-03T17:30:37.343Z,101671.82
2018-11-03T17:33:06.035Z,101667.45
2018-11-03T17:35:45.235Z,101672.91
2018-11-03T17:38:13.619Z,101664.70
2018-11-03T17:40:51.850Z,101658.73
2018-11-03T17:43:20.962Z,101654.91
2018-11-03T17:48:37.871Z,101652.95
2018-11-03T17:51:06.761Z,101645.77
2018-11-03T17:53:36.628Z,101641.88
2018-11-03T17:56:06.790Z,101642.64
2018-11-03T17:58:36.065Z,101648.81
2018-11-03T18:01:08.358Z,101649.66
2018-11-03T18:03:37.085Z,101644.61
2018-11-03T18:06:05.715Z,101635.86
2018-11-03T18:08:34.097Z,101644.88
2018-11-03T18:11:03.765Z,101639.75
2018-11-03T18:13:32.225Z,101638.33
2018-11-03T18:16:01.114Z,101643.56
2018-11-03T18:18:29.593Z,101640.37
2018-11-03T18:21:01.529Z,101638.70
2018-11-03T18:23:30.060Z,101633.45
2018-11-03T18:26:00.222Z,101632.89
2018-11-03T18:28:28.842Z,101624.09
2018-11-03T18:30:57.351Z,101618.88
2018-11-03T18:33:32.312Z,101618.91
2018-11-03T18:36:00.570Z,101617.77
2018-11-03T18:38:29.794Z,101616.45
2018-11-03T18:40:58.169Z,101606.83
2018-11-03T18:43:26.539Z,101609.41
2018-11-03T18:45:54.922Z,101600.89
2018-11-03T18:48:23.593Z,101605.29
2018-11-03T18:50:52.595Z,101606.98
2018-11-03T18:53:22.283Z,101604.56
2018-11-03T18:55:51.546Z,101603.75
2018-11-03T18:58:21.497Z,101605.38
2018-11-03T19:00:50.057Z,101606.17
2018-11-03T19:03:18.621Z,101614.41
2018-11-03T19:05:47.868Z,101618.06
2018-11-03T19:08:17.383Z,101608.70
2018-11-03T19:10:46.171Z,101616.63
2018-11-03T19:13:15.507Z,101614.05
2018-11-03T19:15:44.361Z,101614.17
2018-11-03T19:18:13.669Z,101607.94
2018-11-03T19:20:42.443Z,101601.20
2018-11-03T19:23:11.381Z,101606.20
2018-11-03T19:25:40.111Z,101596.54
2018-11-03T19:28:08.846Z,101599.00
2018-11-03T19:30:37.837Z,101593.19
2018-11-03T19:33:06.382Z,101589.53
2018-11-03T19:35:35.221Z,101589.18
2018-11-03T19:38:04.590Z,101583.20
2018-11-03T19:40:33.189Z,101585.87
2018-11-03T19:43:02.382Z,101584.59
2018-11-03T19:45:30.760Z,101588.91
2018-11-03T19:47:59.312Z,101587.75
2018-11-03T19:50:28.145Z,101584.55
2018-11-03T19:52:57.098Z,101586.42
2018-11-03T19:55:25.674Z,101578.79
2018-11-03T19:57:54.075Z,101581.02
2018-11-03T20:00:22.794Z,101579.84
2018-11-03T20:02:52.473Z,101575.63
2018-11-03T20:05:21.350Z,101579.91
2018-11-03T20:07:51.461Z,101585.88
2018-11-03T20:10:21.013Z,101582.45
2018-11-03T20:12:49.425Z,101573.55
2018-11-03T20:15:18.034Z,101576.09
2018-11-03T20:17:47.400Z,101579.94
2018-11-03T20:20:16.098Z,101568.78
2018-11-03T20:22:44.906Z,101568.03
2018-11-03T20:25:14.865Z,101566.34
2018-11-03T20:27:44.014Z,101568.06
2018-11-03T20:30:14.715Z,101557.52
2018-11-03T20:32:44.764Z,101565.22
2018-11-03T20:35:14.387Z,101567.41
2018-11-03T20:37:42.926Z,101566.63
2018-11-03T20:40:13.181Z,101561.56
2018-11-03T20:42:41.964Z,101550.98
2018-11-03T20:45:10.988Z,101562.45
2018-11-03T20:47:39.832Z,101549.25
2018-11-03T20:50:11.170Z,101546.31
2018-11-03T20:52:39.510Z,101549.22
2018-11-03T20:55:08.623Z,101545.41
2018-11-03T20:57:37.570Z,101547.95
2018-11-03T21:00:09.924Z,101543.42
2018-11-03T21:02:47.054Z,101545.09
2018-11-03T21:05:15.614Z,101539.57
2018-11-03T21:07:44.593Z,101533.99
2018-11-03T21:10:13.067Z,101537.42
2018-11-03T21:12:41.501Z,101533.53
2018-11-03T21:15:09.946Z,101546.27
2018-11-03T21:17:39.277Z,101540.25
2018-11-03T21:20:10.508Z,101538.95
2018-11-03T21:22:41.120Z,101528.31
2018-11-03T21:25:10.964Z,101529.48
2018-11-03T21:27:39.522Z,101525.63
2018-11-03T21:30:09.895Z,101519.27
2018-11-03T21:32:38.507Z,101514.86
2018-11-03T21:35:06.963Z,101513.23
2018-11-03T21:37:35.893Z,101507.27
2018-11-03T21:40:05.396Z,101508.89
2018-11-03T21:42:33.877Z,101505.43
2018-11-03T21:45:03.170Z,101493.91
2018-11-03T21:47:32.435Z,101497.63
2018-11-03T21:50:01.264Z,101492.15
2018-11-03T21:52:29.952Z,101483.92
2018-11-03T21:54:58.912Z,101483.92
2018-11-03T21:57:28.394Z,101481.34
2018-11-03T21:59:56.758Z,101483.77
2018-11-03T22:02:25.132Z,101476.95
2018-11-03T22:04:53.773Z,101478.08
2018-11-03T22:07:22.876Z,101474.58
2018-11-03T22:09:51.219Z,101473.69
2018-11-03T22:12:19.587Z,101474.08
2018-11-03T22:14:48.213Z,101469.49
2018-11-03T22:17:18.634Z,101468.57
2018-11-03T22:19:48.138Z,101470.27
2018-11-03T22:22:18.584Z,101465.48
2018-11-03T22:24:46.950Z,101452.78
2018-11-03T22:27:15.397Z,101455.21
2018-11-03T22:29:44.148Z,101450.98
2018-11-03T22:32:12.968Z,101441.58
2018-11-03T22:34:41.331Z,101438.96
2018-11-03T22:37:09.920Z,101433.03
2018-11-03T22:39:38.579Z,101427.11
2018-11-03T22:42:07.123Z,101418.98
2018-11-03T22:44:35.439Z,101419.91
2018-11-03T22:47:04.807Z,101418.10
2018-11-03T22:49:33.579Z,101408.02
2018-11-03T22:52:06.070Z,101409.14
2018-11-03T22:54:35.546Z,101399.82
2018-11-03T22:57:04.223Z,101399.28
2018-11-03T22:59:32.562Z,101400.13
2018-11-03T23:02:01.071Z,101397.90
2018-11-03T23:04:29.514Z,101396.81
2018-11-03T23:06:58.384Z,101395.47
2018-11-03T23:09:28.306Z,101391.19
2018-11-03T23:11:57.229Z,101385.86
2018-11-03T23:14:26.044Z,101380.37
2018-11-03T23:16:54.462Z,101381.55
2018-11-03T23:19:23.099Z,101368.64
2018-11-03T23:21:51.760Z,101366.86
2018-11-03T23:24:20.358Z,101360.30
2018-11-03T23:26:48.772Z,101358.38
2018-11-03T23:29:17.286Z,101351.26
2018-11-03T23:31:45.807Z,101344.12
2018-11-03T23:34:15.107Z,101340.61
2018-11-03T23:36:43.643Z,101341.74
2018-11-03T23:39:13.141Z,101342.69
2018-11-03T23:41:41.690Z,101333.55
2018-11-03T23:44:10.551Z,101329.94
2018-11-03T23:46:39.201Z,101326.75
2018-11-03T23:49:08.066Z,101322.33
2018-11-03T23:51:36.434Z,101322.23
2018-11-03T23:54:05.403Z,101311.88
2018-11-03T23:56:34.098Z,101311.50
2018-11-03T23:59:02.804Z,101307.57
